Time;durP1;ratioP1;P1;durP2;ratioP2;P2;SDS_P1;SDS_P2;PMS_P1;PMS_P2;Temp;Humidity;BMP_temperature;BMP_pressure;BME280_temperature;BME280_humidity;BME280_pressure;Samples;Min_cycle;Max_cycle;Signal;HPM_P1;HPM_P2
2023/09/26 00:00:20;;;;;;;13.40;10.70;;;;;;;18.78;88.48;100963.55;105723;1258;72039;-72
2023/09/26 00:02:49;;;;;;;12.00;10.70;;;;;;;18.81;88.41;100962.70;105660;1260;69265;-70
2023/09/26 00:05:19;;;;;;;12.40;10.90;;;;;;;18.80;88.36;100960.38;105981;1253;72878;-74
2023/09/26 00:07:48;;;;;;;11.90;10.70;;;;;;;18.76;88.52;100955.50;105596;1256;61016;-74
2023/09/26 00:10:16;;;;;;;16.40;11.30;;;;;;;18.72;88.58;100958.44;105418;1259;60752;-73
2023/09/26 00:12:44;;;;;;;12.50;10.30;;;;;;;18.74;88.48;100953.59;105614;1257;73800;-73
2023/09/26 00:15:12;;;;;;;14.70;10.70;;;;;;;18.76;88.29;100953.90;106032;1258;69955;-73
2023/09/26 00:17:39;;;;;;;11.70;10.10;;;;;;;18.74;88.50;100953.66;105851;1258;71178;-73
2023/09/26 00:20:10;;;;;;;12.30;10.90;;;;;;;18.70;88.49;100956.06;105819;1253;61715;-73
2023/09/26 00:22:38;;;;;;;12.20;10.20;;;;;;;18.71;88.49;100954.34;105934;1256;62043;-74
2023/09/26 00:25:06;;;;;;;15.80;10.70;;;;;;;18.73;88.35;100960.03;105895;1258;72589;-73
2023/09/26 00:27:33;;;;;;;15.10;11.10;;;;;;;18.69;88.36;100959.86;105552;1259;70272;-73
2023/09/26 00:30:01;;;;;;;17.30;11.40;;;;;;;18.62;88.59;100961.70;105428;1259;72436;-71
2023/09/26 00:32:30;;;;;;;12.70;10.30;;;;;;;18.58;88.58;100961.30;105751;1253;61601;-73
2023/09/26 00:34:57;;;;;;;11.20;9.90;;;;;;;18.59;88.59;100965.02;105733;1260;62245;-72
2023/09/26 00:37:25;;;;;;;13.30;11.10;;;;;;;18.58;88.70;100967.80;105378;1259;73803;-72
2023/09/26 00:39:53;;;;;;;14.90;11.50;;;;;;;18.54;88.97;100967.21;105506;1259;69938;-72
2023/09/26 00:42:21;;;;;;;16.80;10.90;;;;;;;18.49;89.16;100969.48;105645;1253;72511;-72
2023/09/26 00:44:48;;;;;;;13.40;10.80;;;;;;;18.52;89.18;100966.44;105428;1256;61756;-73
2023/09/26 00:47:16;;;;;;;11.80;10.50;;;;;;;18.54;89.13;100963.64;105797;1253;61013;-72
2023/09/26 00:49:43;;;;;;;12.90;11.60;;;;;;;18.51;89.32;100964.37;106788;1253;72817;-72
2023/09/26 00:52:11;;;;;;;12.50;11.20;;;;;;;18.48;89.48;100962.92;105485;1255;70088;-73
2023/09/26 00:54:38;;;;;;;13.90;11.00;;;;;;;18.51;89.44;100960.18;105673;1253;72679;-73
2023/09/26 00:57:06;;;;;;;13.10;10.90;;;;;;;18.58;89.37;100964.64;105805;1253;60411;-72
2023/09/26 00:59:33;;;;;;;13.50;11.70;;;;;;;18.57;89.47;100963.80;105664;1255;60351;-72
2023/09/26 01:02:01;;;;;;;13.00;10.70;;;;;;;18.54;89.50;100966.29;105355;1259;72697;-72
2023/09/26 01:04:29;;;;;;;12.20;10.20;;;;;;;18.57;89.32;100969.52;105679;1259;69921;-73
2023/09/26 01:06:57;;;;;;;14.30;10.60;;;;;;;18.60;89.25;100971.83;105355;1254;72470;-73
2023/09/26 01:09:24;;;;;;;13.30;11.40;;;;;;;18.58;89.24;100972.97;105770;1256;60467;-73
2023/09/26 01:11:51;;;;;;;13.30;11.50;;;;;;;18.55;89.35;100969.61;105646;1254;60478;-73
2023/09/26 01:14:19;;;;;;;13.10;10.70;;;;;;;18.53;89.30;100969.14;105544;1259;72639;-71
2023/09/26 01:16:46;;;;;;;12.30;10.50;;;;;;;18.57;89.15;100967.37;105483;1257;69967;-73
2023/09/26 01:19:14;;;;;;;14.10;11.60;;;;;;;18.60;89.15;100965.27;105647;1260;72664;-72
2023/09/26 01:21:41;;;;;;;13.60;12.00;;;;;;;18.57;89.25;100965.02;105472;1259;60565;-72
2023/09/26 01:24:09;;;;;;;13.10;11.00;;;;;;;18.54;89.30;100962.81;105807;1258;60442;-70
2023/09/26 01:26:37;;;;;;;16.00;10.60;;;;;;;18.57;89.14;100960.23;105522;1253;73820;-71
2023/09/26 01:29:07;;;;;;;14.20;11.70;;;;;;;18.61;89.02;100954.12;105589;1257;70845;-72
2023/09/26 01:31:34;;;;;;;12.60;11.40;;;;;;;18.60;89.04;100957.92;105377;1257;72671;-72
2023/09/26 01:34:03;;;;;;;15.70;12.60;;;;;;;18.55;89.12;100963.45;105708;1259;61622;-72
2023/09/26 01:36:31;;;;;;;14.20;11.60;;;;;;;18.56;89.06;100962.84;105713;1256;188409;-72
2023/09/26 01:40:47;;;;;;;16.20;12.80;;;;;;;18.58;89.00;100962.58;102235;1295;601505;-71
2023/09/26 01:43:13;;;;;;;15.30;13.60;;;;;;;18.51;89.12;100962.91;104639;1267;59324;-70
2023/09/26 01:45:43;;;;;;;18.30;12.90;;;;;;;18.48;89.27;100962.95;104715;1267;60159;-72
2023/09/26 01:48:11;;;;;;;15.60;12.40;;;;;;;18.54;89.34;100966.38;104571;1269;73162;-70
2023/09/26 01:50:37;;;;;;;15.00;13.40;;;;;;;18.58;89.07;100969.98;104832;1269;68915;-70
2023/09/26 01:53:04;;;;;;;15.40;13.40;;;;;;;18.57;89.15;100973.74;104980;1263;161954;-70
2023/09/26 01:55:31;;;;;;;14.70;12.80;;;;;;;18.53;89.21;100969.88;105200;1255;61900;-70
2023/09/26 01:57:58;;;;;;;13.60;11.30;;;;;;;18.53;89.05;100975.92;105403;1257;60260;-70
2023/09/26 02:00:24;;;;;;;15.80;14.20;;;;;;;18.53;89.13;100977.55;105192;1254;74639;-72
2023/09/26 02:02:51;;;;;;;18.10;14.20;;;;;;;18.49;89.19;100980.11;105285;1257;59247;-70
2023/09/26 02:05:19;;;;;;;17.70;14.10;;;;;;;18.43;89.33;100985.46;105177;1257;73485;-69
2023/09/26 02:07:47;;;;;;;18.40;14.10;;;;;;;18.44;89.28;100988.91;105453;1257;60536;-69
2023/09/26 02:10:15;;;;;;;15.30;13.10;;;;;;;18.47;89.15;100993.05;105559;1256;60217;-71
2023/09/26 02:12:44;;;;;;;16.00;13.80;;;;;;;18.41;89.19;100995.38;105781;1259;73155;-71
2023/09/26 02:15:12;;;;;;;15.50;12.50;;;;;;;18.32;89.44;100993.48;105314;1258;70937;-72
2023/09/26 02:17:40;;;;;;;17.10;14.30;;;;;;;18.28;89.51;100993.02;105451;1256;72913;-70
2023/09/26 02:20:15;;;;;;;17.30;14.50;;;;;;;18.25;89.69;100991.88;105511;1254;60143;-70
2023/09/26 02:22:44;;;;;;;20.10;15.30;;;;;;;18.19;90.08;100993.23;105679;1254;59544;-71
2023/09/26 02:25:11;;;;;;;18.20;13.50;;;;;;;18.13;90.30;100992.92;105440;1258;73419;-71
2023/09/26 02:27:39;;;;;;;18.00;12.90;;;;;;;18.13;90.28;100991.64;105539;1254;70152;-70
2023/09/26 02:30:06;;;;;;;14.80;13.00;;;;;;;18.11;90.31;100992.54;105604;1254;72882;-72
2023/09/26 02:32:33;;;;;;;15.60;13.60;;;;;;;18.07;90.56;100998.39;105615;1253;60254;-71
2023/09/26 02:35:00;;;;;;;17.30;14.00;;;;;;;18.06;90.87;100996.30;105531;1257;60108;-69
2023/09/26 02:37:26;;;;;;;14.30;12.70;;;;;;;18.12;90.73;100997.37;105684;1254;72853;-70
2023/09/26 02:39:53;;;;;;;15.30;13.70;;;;;;;18.17;90.57;100994.21;105795;1257;70501;-70
2023/09/26 02:42:20;;;;;;;16.40;14.70;;;;;;;18.15;90.55;100994.60;105658;1254;73071;-70
2023/09/26 02:44:46;;;;;;;17.40;14.40;;;;;;;18.12;90.70;101001.48;105557;1254;60068;-71
2023/09/26 02:47:13;;;;;;;14.60;13.20;;;;;;;18.14;90.58;101000.09;105572;1254;60175;-71
2023/09/26 02:49:41;;;;;;;21.50;16.00;;;;;;;18.16;90.24;101000.23;105736;1256;73635;-71
2023/09/26 02:52:08;;;;;;;17.30;15.50;;;;;;;18.10;90.29;101004.17;105528;1254;70890;-72
2023/09/26 02:54:35;;;;;;;19.00;15.20;;;;;;;18.04;90.56;101008.73;105629;1254;71731;-73
2023/09/26 02:57:01;;;;;;;16.90;15.10;;;;;;;18.05;90.56;101012.08;105426;1254;61806;-72
2023/09/26 02:59:29;;;;;;;18.90;14.40;;;;;;;18.08;90.54;101013.02;105358;1253;60048;-71
2023/09/26 03:01:56;;;;;;;17.30;15.50;;;;;;;18.05;90.57;101014.62;105499;1253;72179;-73
2023/09/26 03:04:23;;;;;;;16.00;14.10;;;;;;;18.01;90.64;101020.12;105464;1254;70611;-72
2023/09/26 03:06:50;;;;;;;17.30;14.70;;;;;;;18.03;90.55;101024.16;105653;1254;73145;-73
2023/09/26 03:09:17;;;;;;;17.70;14.60;;;;;;;18.07;90.41;101027.86;105782;1254;60074;-72
2023/09/26 03:11:44;;;;;;;17.70;14.20;;;;;;;18.04;90.31;101030.06;105646;1254;59736;-73
2023/09/26 03:14:11;;;;;;;20.10;16.10;;;;;;;17.98;90.46;101028.98;105798;1256;73751;-72
2023/09/26 03:16:38;;;;;;;15.40;13.50;;;;;;;17.98;90.54;101029.87;105553;1254;70377;-72
2023/09/26 03:19:08;;;;;;;18.10;14.20;;;;;;;18.02;90.56;101028.67;105440;1254;73511;-73
2023/09/26 03:21:35;;;;;;;17.20;15.30;;;;;;;17.99;90.58;101020.88;105874;1254;60815;-73
2023/09/26 03:24:01;;;;;;;19.20;14.40;;;;;;;17.97;90.80;101027.41;106017;1254;59654;-72
2023/09/26 03:26:29;;;;;;;15.60;14.00;;;;;;;18.02;90.55;101025.83;105468;1257;73621;-74
2023/09/26 03:28:56;;;;;;;17.50;14.30;;;;;;;18.04;90.19;101026.39;105454;1254;71150;-72
2023/09/26 03:31:22;;;;;;;17.50;15.20;;;;;;;18.01;90.33;101027.80;105982;1255;73364;-71
2023/09/26 03:33:52;;;;;;;18.80;15.10;;;;;;;17.99;90.26;101028.61;105728;1254;60075;-72
2023/09/26 03:36:19;;;;;;;17.60;13.80;;;;;;;17.99;90.14;101027.27;105514;1254;60180;-72
2023/09/26 03:38:46;;;;;;;17.00;13.30;;;;;;;18.04;89.90;101032.30;105487;1257;59638;-70
2023/09/26 03:41:13;;;;;;;15.10;13.50;;;;;;;18.07;89.64;101030.66;105418;1254;59836;-71
2023/09/26 03:43:39;;;;;;;18.80;15.90;;;;;;;18.04;89.73;101031.78;105647;1257;73226;-71
2023/09/26 03:46:07;;;;;;;16.70;13.70;;;;;;;17.98;89.81;101030.49;105644;1254;59687;-71
2023/09/26 03:48:34;;;;;;;18.90;14.00;;;;;;;17.99;89.73;101032.41;105532;1254;60066;-69
2023/09/26 03:51:08;;;;;;;15.70;13.90;;;;;;;18.01;89.72;101038.80;105577;1257;72209;-71
2023/09/26 03:53:36;;;;;;;16.10;14.40;;;;;;;18.00;89.86;101038.75;105587;1254;70513;-71
2023/09/26 03:56:03;;;;;;;18.70;13.50;;;;;;;17.99;89.97;101036.55;105511;1257;72556;-69
2023/09/26 03:58:31;;;;;;;17.70;13.70;;;;;;;18.05;89.69;101042.30;105637;1253;61693;-70
2023/09/26 04:01:11;;;;;;;18.40;14.80;;;;;;;18.11;89.37;101042.33;105658;1254;60024;-70
2023/09/26 04:03:38;;;;;;;17.20;15.40;;;;;;;18.10;89.35;101043.81;105637;1253;73061;-71
2023/09/26 04:06:05;;;;;;;16.30;13.80;;;;;;;18.09;89.23;101044.50;105689;1254;70397;-71
2023/09/26 04:08:32;;;;;;;17.10;13.40;;;;;;;18.13;88.99;101046.29;105615;1254;73184;-68
2023/09/26 04:10:59;;;;;;;17.40;14.50;;;;;;;18.18;88.80;101045.70;105520;1254;59621;-71
2023/09/26 04:13:25;;;;;;;17.10;13.00;;;;;;;18.17;88.68;101046.22;105395;1254;59653;-70
2023/09/26 04:15:55;;;;;;;19.90;13.40;;;;;;;18.13;88.62;101043.68;105566;1256;73442;-71
2023/09/26 04:18:25;;;;;;;;;;;;;;;18.09;88.50;101043.25;105563;1254;70484;-71
2023/09/26 04:20:52;;;;;;;14.50;13.10;;;;;;;18.12;88.46;101043.05;105818;1256;72948;-70
2023/09/26 04:23:21;;;;;;;17.30;13.20;;;;;;;18.12;88.46;101044.62;105515;1254;60614;-73
2023/09/26 04:25:48;;;;;;;15.30;13.70;;;;;;;18.11;88.69;101044.08;105428;1258;59606;-72
2023/09/26 04:28:14;;;;;;;17.20;12.80;;;;;;;18.12;88.57;101045.04;105552;1256;73601;-72
2023/09/26 04:30:41;;;;;;;15.60;13.20;;;;;;;18.18;88.23;101049.10;105569;1254;70376;-71
2023/09/26 04:33:08;;;;;;;18.50;14.20;;;;;;;18.21;87.92;101052.52;105369;1257;73255;-71
2023/09/26 04:35:35;;;;;;;17.80;13.80;;;;;;;18.18;88.03;101052.89;105515;1253;60219;-71
2023/09/26 04:38:02;;;;;;;15.60;13.40;;;;;;;18.14;88.13;101051.55;105718;1254;60017;-69
2023/09/26 04:40:29;;;;;;;15.80;13.50;;;;;;;18.14;88.15;101053.38;106124;1257;72037;-74
2023/09/26 04:43:00;;;;;;;17.20;12.70;;;;;;;18.21;87.88;101056.46;106005;1254;69321;-74
2023/09/26 04:45:31;;;;;;;16.60;13.30;;;;;;;18.23;87.68;101054.55;106021;1254;71637;-73
2023/09/26 04:47:59;;;;;;;15.80;14.00;;;;;;;18.21;87.80;101056.83;105883;1254;60245;-75
2023/09/26 04:50:27;;;;;;;14.70;12.80;;;;;;;18.18;87.74;101053.02;106244;1254;59747;-74
2023/09/26 04:52:54;;;;;;;14.90;13.20;;;;;;;18.21;87.62;101058.40;106041;1256;73204;-75
2023/09/26 04:55:21;;;;;;;14.40;12.80;;;;;;;18.23;87.66;101060.91;105934;1254;70243;-76
2023/09/26 04:57:48;;;;;;;16.00;14.00;;;;;;;18.20;87.66;101068.27;106060;1254;72417;-76
2023/09/26 05:00:19;;;;;;;14.90;13.30;;;;;;;18.13;87.75;101069.39;105940;1255;60046;-75
2023/09/26 05:02:46;;;;;;;18.20;13.70;;;;;;;18.12;87.87;101069.44;105798;1253;60326;-75
2023/09/26 05:05:13;;;;;;;16.10;13.50;;;;;;;18.11;87.73;101068.94;106020;1257;72848;-74
2023/09/26 05:07:49;;;;;;;16.30;13.50;;;;;;;18.10;87.86;101074.13;105963;1256;70127;-72
2023/09/26 05:10:16;;;;;;;19.50;14.60;;;;;;;18.07;88.02;101074.09;105950;1254;72778;-76
2023/09/26 05:12:42;;;;;;;17.00;13.70;;;;;;;18.07;88.08;101073.05;105848;1256;61636;-73
2023/09/26 05:15:16;;;;;;;15.80;13.40;;;;;;;18.14;87.78;101074.75;105922;1254;59768;-75
2023/09/26 05:17:50;;;;;;;15.50;13.20;;;;;;;18.20;87.72;101074.80;105988;1254;71200;-75
2023/09/26 05:20:16;;;;;;;17.10;14.80;;;;;;;18.21;87.70;101076.11;106023;1256;70153;-74
2023/09/26 05:22:45;;;;;;;13.70;12.10;;;;;;;18.21;87.73;101074.50;105901;1255;72821;-73
2023/09/26 05:25:12;;;;;;;15.60;13.80;;;;;;;18.27;87.72;101078.01;106076;1256;60726;-74
2023/09/26 05:27:39;;;;;;;17.70;13.50;;;;;;;18.32;87.53;101075.80;106002;1252;60099;-78
2023/09/26 05:30:06;;;;;;;16.00;13.70;;;;;;;18.32;87.49;101071.29;105945;1254;72712;-78
2023/09/26 05:32:33;;;;;;;18.50;15.10;;;;;;;18.29;87.57;101070.88;106094;1254;70243;-76
2023/09/26 05:34:59;;;;;;;15.40;12.90;;;;;;;18.28;87.61;101078.33;105895;1254;71195;-77
2023/09/26 05:37:27;;;;;;;18.40;13.60;;;;;;;18.35;87.26;101073.05;106070;1256;61809;-78
2023/09/26 05:39:54;;;;;;;18.80;14.00;;;;;;;18.41;87.14;101076.83;106202;1256;60034;-78
2023/09/26 05:42:20;;;;;;;18.10;15.30;;;;;;;18.44;87.16;101078.61;106018;1256;59605;-78
2023/09/26 05:44:47;;;;;;;18.20;14.40;;;;;;;18.43;86.88;101078.93;106370;1255;70697;-78
2023/09/26 05:47:14;;;;;;;18.40;14.60;;;;;;;18.41;86.80;101079.83;106131;1251;72689;-78
2023/09/26 05:49:40;;;;;;;16.30;13.60;;;;;;;18.47;86.69;101079.27;106717;1254;62173;-80
2023/09/26 05:52:07;;;;;;;16.70;14.50;;;;;;;18.56;86.49;101080.34;106660;1252;60600;-79
2023/09/26 05:54:34;;;;;;;19.00;15.50;;;;;;;18.59;86.10;101081.23;107197;1254;73789;-79
2023/09/26 05:57:03;;;;;;;18.50;14.80;;;;;;;18.62;86.03;101085.55;106701;1255;70447;-79
2023/09/26 05:59:30;;;;;;;17.40;13.70;;;;;;;18.66;85.72;101086.09;106492;1254;72741;-76
2023/09/26 06:01:57;;;;;;;15.90;13.70;;;;;;;18.77;85.22;101085.19;105943;1252;60489;-75
2023/09/26 06:04:24;;;;;;;17.50;13.50;;;;;;;18.85;84.83;101084.60;105902;1254;60507;-77
2023/09/26 06:06:51;;;;;;;15.60;13.40;;;;;;;18.85;84.55;101083.15;105967;1255;73741;-77
2023/09/26 06:09:17;;;;;;;22.50;14.20;;;;;;;18.82;84.34;101084.52;106007;1254;70454;-77
2023/09/26 06:11:44;;;;;;;15.80;14.10;;;;;;;18.81;84.22;101085.73;105849;1254;72358;-77
2023/09/26 06:14:11;;;;;;;16.40;12.70;;;;;;;18.88;83.93;101082.02;105880;1253;61226;-76
2023/09/26 06:16:38;;;;;;;17.70;15.30;;;;;;;18.94;83.69;101082.30;106143;1255;60439;-76
2023/09/26 06:19:05;;;;;;;18.90;14.60;;;;;;;18.96;83.78;101088.23;105830;1254;73622;-76
2023/09/26 06:21:32;;;;;;;16.50;14.60;;;;;;;18.96;83.59;101088.91;106200;1251;68877;-77
2023/09/26 06:23:58;;;;;;;17.10;15.30;;;;;;;18.97;83.48;101090.79;105912;1257;72750;-75
2023/09/26 06:26:25;;;;;;;14.10;12.70;;;;;;;19.06;83.10;101091.87;106040;1251;60704;-75
2023/09/26 06:28:52;;;;;;;15.50;13.60;;;;;;;19.17;82.87;101091.66;106072;1256;60431;-74
2023/09/26 06:31:18;;;;;;;18.50;15.00;;;;;;;19.23;82.68;101090.80;105909;1258;74694;-75
2023/09/26 06:33:45;;;;;;;17.20;14.40;;;;;;;19.27;82.51;101091.09;105927;1254;70174;-76
2023/09/26 06:36:13;;;;;;;15.40;13.80;;;;;;;19.28;82.13;101093.81;106009;1251;71298;-75
2023/09/26 06:38:40;;;;;;;15.70;13.40;;;;;;;19.34;81.93;101094.30;106040;1253;61814;-76
2023/09/26 06:41:07;;;;;;;16.90;14.10;;;;;;;19.44;81.76;101096.77;105699;1252;60670;-76
2023/09/26 06:43:34;;;;;;;18.20;14.60;;;;;;;19.50;81.12;101098.88;106082;1254;72572;-76
2023/09/26 06:46:08;;;;;;;17.50;14.20;;;;;;;19.49;80.89;101099.42;105878;1258;70060;-74
2023/09/26 06:48:37;;;;;;;16.00;14.30;;;;;;;19.51;80.73;101101.30;105957;1254;72433;-76
2023/09/26 06:51:04;;;;;;;15.00;13.30;;;;;;;19.61;80.33;101103.75;106003;1254;61834;-77
2023/09/26 06:53:31;;;;;;;15.10;13.50;;;;;;;19.70;79.97;101105.90;106013;1254;60397;-77
2023/09/26 06:56:02;;;;;;;14.90;13.40;;;;;;;19.71;79.62;101107.78;106152;1257;73890;-75
2023/09/26 06:58:29;;;;;;;18.10;15.30;;;;;;;19.68;79.49;101110.62;106204;1251;70322;-76
2023/09/26 07:00:59;;;;;;;16.00;13.00;;;;;;;19.66;79.35;101110.34;106420;1256;71639;-75
2023/09/26 07:03:29;;;;;;;14.90;12.40;;;;;;;19.69;79.24;101109.12;106758;1251;60999;-74
2023/09/26 07:05:56;;;;;;;16.60;13.90;;;;;;;19.74;78.98;101109.20;106680;1252;60631;-76
2023/09/26 07:08:23;;;;;;;18.80;14.60;;;;;;;19.81;78.67;101110.21;106382;1257;72896;-75
2023/09/26 07:10:50;;;;;;;18.00;13.50;;;;;;;19.83;78.36;101109.84;106389;1251;70475;-75
2023/09/26 07:13:17;;;;;;;15.80;13.90;;;;;;;19.82;78.24;101108.31;106369;1255;72634;-75
2023/09/26 07:16:05;;;;;;;18.50;14.30;;;;;;;19.82;78.14;101103.79;106669;1256;61207;-77
2023/09/26 07:18:32;;;;;;;16.20;13.40;;;;;;;19.86;77.99;101103.19;106538;1254;60539;-75
2023/09/26 07:21:05;;;;;;;17.40;13.30;;;;;;;19.97;77.59;101104.84;106245;1256;73933;-75
2023/09/26 07:23:35;;;;;;;14.90;13.20;;;;;;;20.06;77.34;101104.21;106355;1256;70030;-76
2023/09/26 07:26:12;;;;;;;15.40;13.40;;;;;;;20.08;77.29;101107.33;106051;1254;71214;-76
2023/09/26 07:28:43;;;;;;;15.80;13.90;;;;;;;20.11;76.85;101107.14;106401;1253;60539;-76
2023/09/26 07:31:11;;;;;;;17.10;13.90;;;;;;;20.13;76.38;101105.66;106665;1254;60482;-75
2023/09/26 07:33:38;;;;;;;16.50;13.40;;;;;;;20.12;76.05;101105.95;106519;1254;72378;-75
2023/09/26 07:36:06;;;;;;;13.80;12.30;;;;;;;20.20;75.80;101104.02;106446;1251;70322;-76
2023/09/26 07:38:33;;;;;;;15.00;13.40;;;;;;;20.31;75.55;101103.95;106030;1254;72690;-76
2023/09/26 07:41:00;;;;;;;15.50;13.00;;;;;;;20.39;75.21;101098.96;106217;1253;60446;-76
2023/09/26 07:43:32;;;;;;;16.50;13.20;;;;;;;20.45;74.93;101095.80;106234;1254;60546;-75
2023/09/26 07:46:09;;;;;;;16.60;14.80;;;;;;;20.52;74.65;101095.41;105992;1259;74331;-75
2023/09/26 07:48:37;;;;;;;14.70;13.00;;;;;;;20.60;74.24;101089.98;106182;1254;70125;-76
2023/09/26 07:51:05;;;;;;;17.50;13.20;;;;;;;20.63;74.09;101092.77;106139;1256;72479;-76
2023/09/26 07:53:31;;;;;;;12.50;11.30;;;;;;;20.72;74.17;101086.91;106075;1254;61715;-76
2023/09/26 07:55:58;;;;;;;14.10;12.60;;;;;;;20.84;73.95;101089.08;105984;1254;60586;-77
2023/09/26 07:58:25;;;;;;;14.20;12.80;;;;;;;20.92;73.46;101085.86;106164;1251;73917;-76
2023/09/26 08:00:53;;;;;;;19.60;11.80;;;;;;;20.98;73.31;101088.13;106246;1256;70323;-75
2023/09/26 08:03:20;;;;;;;12.70;11.30;;;;;;;21.09;72.92;101082.03;106296;1251;72655;-76
2023/09/26 08:05:46;;;;;;;15.20;13.40;;;;;;;21.15;72.41;101082.46;106337;1253;60456;-76
2023/09/26 08:08:13;;;;;;;13.90;12.50;;;;;;;21.19;71.93;101081.55;107278;1253;60324;-77
2023/09/26 08:10:40;;;;;;;17.50;13.10;;;;;;;21.27;71.58;101076.90;107404;1254;60530;-76
2023/09/26 08:13:06;;;;;;;14.50;12.00;;;;;;;21.36;71.33;101076.75;106695;1251;69445;-75
2023/09/26 08:15:34;;;;;;;17.30;13.30;;;;;;;21.48;70.95;101070.88;106160;1251;71735;-76
2023/09/26 08:18:01;;;;;;;19.60;13.90;;;;;;;21.59;70.62;101073.80;106289;1257;61244;-77
2023/09/26 08:20:29;;;;;;;16.80;12.90;;;;;;;21.71;70.38;101070.72;106183;1254;60504;-77
2023/09/26 08:22:55;;;;;;;16.90;11.30;;;;;;;21.84;70.13;101070.78;106131;1254;72262;-76
2023/09/26 08:25:22;;;;;;;15.20;12.10;;;;;;;22.05;69.28;101069.45;106108;1254;71333;-76
2023/09/26 08:27:49;;;;;;;13.10;11.80;;;;;;;22.18;68.25;101070.45;106045;1260;73995;-76
2023/09/26 08:30:16;;;;;;;14.20;11.40;;;;;;;22.23;67.83;101068.45;106120;1256;61670;-77
2023/09/26 08:32:42;;;;;;;13.50;12.20;;;;;;;22.30;67.95;101065.63;106043;1251;60543;-75
2023/09/26 08:35:10;;;;;;;13.20;12.00;;;;;;;22.45;67.34;101061.81;105743;1251;72660;-74
2023/09/26 08:37:37;;;;;;;14.90;12.20;;;;;;;22.60;67.09;101059.92;106059;1251;69204;-75
2023/09/26 08:40:11;;;;;;;14.70;13.20;;;;;;;22.76;66.74;101058.13;105959;1254;72695;-75
2023/09/26 08:42:40;;;;;;;15.90;11.70;;;;;;;22.92;65.95;101053.45;106043;1258;60421;-76
2023/09/26 08:45:08;;;;;;;16.30;11.90;;;;;;;23.09;65.59;101052.63;105906;1254;60395;-75
2023/09/26 08:47:37;;;;;;;15.00;11.40;;;;;;;23.25;65.18;101051.23;105981;1257;73701;-76
2023/09/26 08:50:04;;;;;;;13.30;12.00;;;;;;;23.42;64.78;101053.20;106118;1256;69047;-77
2023/09/26 08:52:31;;;;;;;16.00;11.60;;;;;;;23.63;64.12;101046.77;106202;1252;72697;-75
2023/09/26 08:54:57;;;;;;;19.00;12.50;;;;;;;23.88;63.63;101051.14;105898;1254;60553;-76
2023/09/26 08:57:24;;;;;;;16.00;12.10;;;;;;;24.23;63.17;101052.06;105950;1254;60344;-77
2023/09/26 08:59:50;;;;;;;13.90;12.10;;;;;;;24.67;61.72;101048.13;105814;1257;74051;-76
2023/09/26 09:02:17;;;;;;;17.50;12.80;;;;;;;25.19;60.59;101046.46;105765;1254;71591;-76
2023/09/26 09:04:44;;;;;;;14.70;10.60;;;;;;;25.76;59.49;101047.41;106059;1258;72633;-76
2023/09/26 09:07:12;;;;;;;12.00;10.90;;;;;;;26.35;58.13;101049.52;106269;1254;60463;-76
2023/09/26 09:10:02;;;;;;;11.70;10.30;;;;;;;26.97;56.56;101044.29;106079;1252;60488;-76
2023/09/26 09:12:29;;;;;;;15.30;11.50;;;;;;;27.61;54.69;101040.05;106203;1257;73835;-73
2023/09/26 09:14:56;;;;;;;13.10;11.50;;;;;;;28.12;54.44;101036.63;106278;1257;69372;-74
2023/09/26 09:17:23;;;;;;;12.90;11.70;;;;;;;28.76;53.14;101035.30;106348;1254;72492;-75
2023/09/26 09:19:51;;;;;;;11.60;10.50;;;;;;;29.39;51.61;101032.66;106467;1257;60411;-76
2023/09/26 09:22:20;;;;;;;15.00;10.20;;;;;;;29.89;50.25;101038.09;106229;1251;60401;-74
2023/09/26 09:24:54;;;;;;;13.30;10.70;;;;;;;30.33;49.14;101038.63;106116;1257;72210;-76
2023/09/26 09:27:43;;;;;;;10.70;9.60;;;;;;;30.77;47.95;101035.80;106149;1257;70368;-78
2023/09/26 09:30:19;;;;;;;11.80;10.40;;;;;;;31.11;46.68;101032.55;105995;1254;72812;-75
2023/09/26 09:32:45;;;;;;;13.90;9.80;;;;;;;31.41;46.46;101031.99;105949;1253;60466;-76
2023/09/26 09:35:15;;;;;;;11.60;9.80;;;;;;;31.82;45.64;101031.55;106073;1256;60576;-79
2023/09/26 09:37:47;;;;;;;10.90;9.90;;;;;;;32.34;44.94;101031.03;106032;1254;73672;-76
2023/09/26 09:40:19;;;;;;;10.40;9.30;;;;;;;32.81;43.75;101032.81;106045;1254;70482;-77
2023/09/26 09:42:48;;;;;;;12.60;9.80;;;;;;;33.18;42.77;101028.41;106097;1254;72437;-79
2023/09/26 09:45:15;;;;;;;11.30;10.40;;;;;;;33.50;42.00;101033.52;105884;1251;60505;-79
2023/09/26 09:47:44;;;;;;;12.80;9.80;;;;;;;33.75;41.60;101031.50;106000;1255;60445;-78
2023/09/26 09:50:13;;;;;;;11.30;10.10;;;;;;;34.00;40.97;101032.54;105902;1257;74593;-79
2023/09/26 09:52:48;;;;;;;10.60;9.50;;;;;;;34.19;40.77;101034.09;105999;1254;71594;-78
2023/09/26 09:55:20;;;;;;;10.00;9.00;;;;;;;34.42;40.10;101030.80;105922;1256;71527;-79
2023/09/26 09:57:51;;;;;;;10.10;9.10;;;;;;;34.58;39.89;101032.61;106097;1253;60516;-79
2023/09/26 10:00:24;;;;;;;;;;;;;;;34.79;39.39;101035.73;106063;1252;60429;-79
2023/09/26 10:02:55;;;;;;;;;;;;;;;35.03;39.09;101034.98;105990;1256;66318;-78
2023/09/26 10:09:55;;;;;;;10.30;8.00;;;;;;;35.63;37.95;101030.13;102787;1293;600278;-77
2023/09/26 10:12:24;;;;;;;8.90;8.00;;;;;;;35.84;37.62;101025.59;105083;1273;59514;-77
2023/09/26 10:14:59;;;;;;;9.50;7.70;;;;;;;36.18;37.32;101019.36;105475;1267;59264;-77
2023/09/26 10:17:27;;;;;;;8.00;6.70;;;;;;;36.58;36.67;101021.48;105674;1273;65505;-77
2023/09/26 10:19:55;;;;;;;8.50;7.70;;;;;;;36.97;36.22;101021.70;104962;1272;60118;-79
2023/09/26 10:22:46;;;;;;;8.20;7.40;;;;;;;37.29;35.79;101017.54;104916;1269;220539;-77
2023/09/26 10:25:19;;;;;;;8.60;7.90;;;;;;;37.61;35.18;101017.97;105966;1266;59805;-77
2023/09/26 10:27:47;;;;;;;8.60;7.80;;;;;;;37.93;34.78;101019.48;105999;1266;59282;-76
2023/09/26 10:30:27;;;;;;;8.20;7.30;;;;;;;38.08;34.59;101014.59;105774;1272;63676;-75
2023/09/26 10:32:54;;;;;;;9.10;8.20;;;;;;;38.28;34.35;101014.64;105363;1266;73283;-77
2023/09/26 10:35:23;;;;;;;8.50;7.10;;;;;;;38.41;33.98;101009.45;105161;1266;63698;-77
2023/09/26 10:38:18;;;;;;;9.70;7.60;;;;;;;38.46;33.73;101011.42;105147;1269;62105;-77
2023/09/26 10:40:46;;;;;;;8.10;7.30;;;;;;;38.62;33.47;101010.03;105128;1270;59744;-77
2023/09/26 10:43:17;;;;;;;8.60;7.80;;;;;;;38.78;33.12;101010.98;104843;1272;62882;-78
2023/09/26 10:46:04;;;;;;;9.90;7.50;;;;;;;38.84;33.39;101009.11;104840;1267;61947;-77
2023/09/26 10:48:32;;;;;;;10.10;7.30;;;;;;;38.96;33.26;101006.80;105090;1263;65863;-76
2023/09/26 10:50:59;;;;;;;8.70;7.80;;;;;;;39.23;32.89;101008.94;105099;1263;59811;-76
2023/09/26 10:53:27;;;;;;;8.10;7.30;;;;;;;39.50;32.27;101004.90;105069;1266;59708;-79
2023/09/26 10:55:55;;;;;;;8.40;7.60;;;;;;;39.58;32.23;101002.95;105033;1263;71951;-79
2023/09/26 10:58:22;;;;;;;7.80;7.00;;;;;;;39.58;32.23;101003.91;105120;1263;61393;-80
2023/09/26 11:00:51;;;;;;;7.70;7.00;;;;;;;39.74;32.16;101002.23;105059;1267;75088;-79
2023/09/26 11:03:19;;;;;;;8.10;7.30;;;;;;;39.97;31.89;101001.27;105130;1263;62249;-79
2023/09/26 11:05:47;;;;;;;11.90;7.20;;;;;;;39.97;31.87;101005.57;105388;1266;59596;-78
2023/09/26 11:08:34;;;;;;;11.00;7.80;;;;;;;40.01;31.78;101005.77;105398;1260;65196;-79
2023/09/26 11:11:02;;;;;;;9.40;8.30;;;;;;;40.08;31.78;101002.03;105405;1260;61656;-79
2023/09/26 11:13:29;;;;;;;7.70;6.90;;;;;;;40.11;31.76;101001.16;105357;1265;63956;-75
2023/09/26 11:15:57;;;;;;;8.50;7.70;;;;;;;40.11;31.67;100997.42;105349;1260;59750;-76